Terminal Aerodrome Forecast
Issued by NWS

Home | Current Version | Previous Version | Graphics & Text | Print | Product List | Glossary On
Versions: 1 2 3 4 5 6 7 8 9 10 11 12 13 14 15 16
000
FTUS43 KGRB 120500
TAFATW
TAF
KATW 120520Z 1206/1306 01005KT P6SM SCT050
     FM121100 01005KT P6SM SCT040 BKN120
     FM121800 34005KT P6SM VCSH BKN035 OVC080
      TEMPO 1221/1301 -RA BKN020 OVC035
     FM130100 31006KT 5SM -RA BR BKN009 OVC018=

USA.gov is the U.S. government's official web portal to all federal, state and local government web resources and services.